sensor_id;sensor_type;location;lat;lon;timestamp;temperature;humidity
16321;DHT22;8269;50.990;4.494;2023-02-28T00:01:21;-0.20;99.90
16321;DHT22;8269;50.990;4.494;2023-02-28T00:03:47;-0.20;99.90
16321;DHT22;8269;50.990;4.494;2023-02-28T00:06:12;-0.20;99.90
16321;DHT22;8269;50.990;4.494;2023-02-28T00:08:38;-0.20;99.90
16321;DHT22;8269;50.990;4.494;2023-02-28T00:11:10;-0.20;99.90
16321;DHT22;8269;50.990;4.494;2023-02-28T00:13:39;-0.20;99.90
16321;DHT22;8269;50.990;4.494;2023-02-28T00:16:10;-0.20;99.90
16321;DHT22;8269;50.990;4.494;2023-02-28T00:18:37;-0.20;99.90
16321;DHT22;8269;50.990;4.494;2023-02-28T00:21:03;-0.10;99.90
16321;DHT22;8269;50.990;4.494;2023-02-28T00:23:29;-0.20;99.90
16321;DHT22;8269;50.990;4.494;2023-02-28T00:25:54;-0.20;99.90
16321;DHT22;8269;50.990;4.494;2023-02-28T00:28:20;-0.20;99.90
16321;DHT22;8269;50.990;4.494;2023-02-28T00:30:46;-0.20;99.90
16321;DHT22;8269;50.990;4.494;2023-02-28T00:33:12;-0.20;99.90
16321;DHT22;8269;50.990;4.494;2023-02-28T00:35:38;-0.30;99.90
16321;DHT22;8269;50.990;4.494;2023-02-28T00:38:04;-0.30;99.90
16321;DHT22;8269;50.990;4.494;2023-02-28T00:40:30;-0.40;99.90
16321;DHT22;8269;50.990;4.494;2023-02-28T00:42:55;-0.30;99.90
16321;DHT22;8269;50.990;4.494;2023-02-28T00:45:21;-0.30;99.90
16321;DHT22;8269;50.990;4.494;2023-02-28T00:47:47;-0.30;99.90
16321;DHT22;8269;50.990;4.494;2023-02-28T00:50:17;-0.40;99.90
16321;DHT22;8269;50.990;4.494;2023-02-28T00:52:43;-0.30;99.90
16321;DHT22;8269;50.990;4.494;2023-02-28T00:55:09;-0.40;99.90
16321;DHT22;8269;50.990;4.494;2023-02-28T00:57:35;-0.40;99.90
16321;DHT22;8269;50.990;4.494;2023-02-28T01:00:00;-0.40;99.90
16321;DHT22;8269;50.990;4.494;2023-02-28T01:02:27;-0.40;99.90
16321;DHT22;8269;50.990;4.494;2023-02-28T01:04:52;-0.40;99.90
16321;DHT22;8269;50.990;4.494;2023-02-28T01:07:18;-0.40;99.90
16321;DHT22;8269;50.990;4.494;2023-02-28T01:09:43;-0.40;99.90
16321;DHT22;8269;50.990;4.494;2023-02-28T01:12:09;-0.40;99.90
16321;DHT22;8269;50.990;4.494;2023-02-28T01:14:35;-0.40;99.90
16321;DHT22;8269;50.990;4.494;2023-02-28T01:17:01;-0.40;99.90
16321;DHT22;8269;50.990;4.494;2023-02-28T01:19:27;-0.50;99.90
16321;DHT22;8269;50.990;4.494;2023-02-28T01:21:52;-0.50;99.90
16321;DHT22;8269;50.990;4.494;2023-02-28T01:24:18;-0.50;99.90
16321;DHT22;8269;50.990;4.494;2023-02-28T01:26:44;-0.50;99.90
16321;DHT22;8269;50.990;4.494;2023-02-28T01:29:10;-0.50;99.90
16321;DHT22;8269;50.990;4.494;2023-02-28T01:31:35;-0.50;99.90
16321;DHT22;8269;50.990;4.494;2023-02-28T01:34:03;-0.60;99.90
16321;DHT22;8269;50.990;4.494;2023-02-28T01:36:28;-0.60;99.90
16321;DHT22;8269;50.990;4.494;2023-02-28T01:38:54;-0.60;99.90
16321;DHT22;8269;50.990;4.494;2023-02-28T01:41:24;-0.70;99.90
16321;DHT22;8269;50.990;4.494;2023-02-28T01:44:00;-0.70;99.90
16321;DHT22;8269;50.990;4.494;2023-02-28T01:46:29;-0.70;99.90
16321;DHT22;8269;50.990;4.494;2023-02-28T01:49:05;-0.70;99.90
16321;DHT22;8269;50.990;4.494;2023-02-28T01:51:42;-0.70;99.90
16321;DHT22;8269;50.990;4.494;2023-02-28T01:54:16;-0.70;99.90
16321;DHT22;8269;50.990;4.494;2023-02-28T01:56:54;-0.70;99.90
16321;DHT22;8269;50.990;4.494;2023-02-28T01:59:43;-0.70;99.90
16321;DHT22;8269;50.990;4.494;2023-02-28T02:02:18;-0.70;99.90
16321;DHT22;8269;50.990;4.494;2023-02-28T02:05:10;-0.80;99.90
16321;DHT22;8269;50.990;4.494;2023-02-28T02:07:40;-0.80;99.90
16321;DHT22;8269;50.990;4.494;2023-02-28T02:15:18;-0.90;99.90
16321;DHT22;8269;50.990;4.494;2023-02-28T02:17:52;-0.90;99.90
16321;DHT22;8269;50.990;4.494;2023-02-28T02:29:01;-0.90;99.90
16321;DHT22;8269;50.990;4.494;2023-02-28T02:32:00;-1.10;99.90
16321;DHT22;8269;50.990;4.494;2023-02-28T02:37:38;-1.00;99.90
16321;DHT22;8269;50.990;4.494;2023-02-28T02:42:39;-1.10;99.90
16321;DHT22;8269;50.990;4.494;2023-02-28T02:45:13;-1.10;99.90
16321;DHT22;8269;50.990;4.494;2023-02-28T02:50:11;-1.20;99.90
16321;DHT22;8269;50.990;4.494;2023-02-28T02:52:41;-1.10;99.90
16321;DHT22;8269;50.990;4.494;2023-02-28T02:55:12;-1.10;99.90
16321;DHT22;8269;50.990;4.494;2023-02-28T02:57:54;-1.00;99.90
16321;DHT22;8269;50.990;4.494;2023-02-28T03:00:25;-1.20;99.90
16321;DHT22;8269;50.990;4.494;2023-02-28T03:02:52;-1.00;99.90
16321;DHT22;8269;50.990;4.494;2023-02-28T03:05:44;-1.20;99.90
16321;DHT22;8269;50.990;4.494;2023-02-28T03:08:07;-1.10;99.90
16321;DHT22;8269;50.990;4.494;2023-02-28T03:10:40;-1.30;99.90
16321;DHT22;8269;50.990;4.494;2023-02-28T03:21:38;-1.40;99.90
16321;DHT22;8269;50.990;4.494;2023-02-28T03:24:07;-1.30;99.90
16321;DHT22;8269;50.990;4.494;2023-02-28T03:26:39;-1.30;99.90
16321;DHT22;8269;50.990;4.494;2023-02-28T03:29:30;-1.40;99.90
16321;DHT22;8269;50.990;4.494;2023-02-28T03:34:36;-1.40;99.90
16321;DHT22;8269;50.990;4.494;2023-02-28T03:37:07;-1.40;99.90
16321;DHT22;8269;50.990;4.494;2023-02-28T03:42:08;-1.30;99.90
16321;DHT22;8269;50.990;4.494;2023-02-28T03:44:38;-1.40;99.90
16321;DHT22;8269;50.990;4.494;2023-02-28T03:47:09;-1.30;99.90
16321;DHT22;8269;50.990;4.494;2023-02-28T03:49:46;-1.50;99.90
16321;DHT22;8269;50.990;4.494;2023-02-28T03:52:14;-1.40;99.90
16321;DHT22;8269;50.990;4.494;2023-02-28T03:54:46;-1.40;99.90
16321;DHT22;8269;50.990;4.494;2023-02-28T03:59:54;-1.50;99.90
16321;DHT22;8269;50.990;4.494;2023-02-28T04:02:21;-1.50;99.90
16321;DHT22;8269;50.990;4.494;2023-02-28T04:04:47;-1.50;99.90
16321;DHT22;8269;50.990;4.494;2023-02-28T04:07:14;-1.70;99.90
16321;DHT22;8269;50.990;4.494;2023-02-28T04:09:40;-1.70;99.90
16321;DHT22;8269;50.990;4.494;2023-02-28T04:12:06;-1.60;99.90
16321;DHT22;8269;50.990;4.494;2023-02-28T04:14:32;-1.70;99.90
16321;DHT22;8269;50.990;4.494;2023-02-28T04:26:46;-1.90;99.90
16321;DHT22;8269;50.990;4.494;2023-02-28T04:29:18;-1.90;99.90
16321;DHT22;8269;50.990;4.494;2023-02-28T04:31:44;-1.80;99.90
16321;DHT22;8269;50.990;4.494;2023-02-28T04:34:10;-1.80;99.90
16321;DHT22;8269;50.990;4.494;2023-02-28T04:36:35;-1.70;99.90
16321;DHT22;8269;50.990;4.494;2023-02-28T04:39:01;-1.80;99.90
16321;DHT22;8269;50.990;4.494;2023-02-28T04:41:27;-1.60;99.90
16321;DHT22;8269;50.990;4.494;2023-02-28T04:43:52;-1.60;99.90
16321;DHT22;8269;50.990;4.494;2023-02-28T04:46:18;-1.40;99.90
16321;DHT22;8269;50.990;4.494;2023-02-28T04:48:45;-1.50;99.90
16321;DHT22;8269;50.990;4.494;2023-02-28T04:51:13;-1.30;99.90
16321;DHT22;8269;50.990;4.494;2023-02-28T04:53:40;-1.20;99.90
16321;DHT22;8269;50.990;4.494;2023-02-28T04:56:07;-1.10;99.90
16321;DHT22;8269;50.990;4.494;2023-02-28T04:58:33;-1.10;99.90
16321;DHT22;8269;50.990;4.494;2023-02-28T05:01:03;-1.10;99.90
16321;DHT22;8269;50.990;4.494;2023-02-28T05:03:30;-1.10;99.90
16321;DHT22;8269;50.990;4.494;2023-02-28T05:05:56;-1.00;99.90
16321;DHT22;8269;50.990;4.494;2023-02-28T05:08:23;-1.00;99.90
16321;DHT22;8269;50.990;4.494;2023-02-28T05:10:49;-0.90;99.90
16321;DHT22;8269;50.990;4.494;2023-02-28T05:13:14;-0.90;99.90
16321;DHT22;8269;50.990;4.494;2023-02-28T05:15:41;-0.80;99.90
16321;DHT22;8269;50.990;4.494;2023-02-28T05:18:08;-0.80;99.90
16321;DHT22;8269;50.990;4.494;2023-02-28T05:20:33;-0.80;99.90
16321;DHT22;8269;50.990;4.494;2023-02-28T05:22:59;-0.80;99.90
16321;DHT22;8269;50.990;4.494;2023-02-28T05:25:25;-0.70;99.90
16321;DHT22;8269;50.990;4.494;2023-02-28T05:27:51;-0.70;99.90
16321;DHT22;8269;50.990;4.494;2023-02-28T05:30:17;-0.60;99.90
16321;DHT22;8269;50.990;4.494;2023-02-28T05:32:42;-0.70;99.90
16321;DHT22;8269;50.990;4.494;2023-02-28T05:35:10;-0.60;99.90
16321;DHT22;8269;50.990;4.494;2023-02-28T05:37:36;-0.70;99.90
16321;DHT22;8269;50.990;4.494;2023-02-28T05:40:03;-0.60;99.90
16321;DHT22;8269;50.990;4.494;2023-02-28T05:42:31;-0.60;99.90
16321;DHT22;8269;50.990;4.494;2023-02-28T05:44:58;-0.60;99.90
16321;DHT22;8269;50.990;4.494;2023-02-28T05:47:24;-0.60;99.90
16321;DHT22;8269;50.990;4.494;2023-02-28T05:49:49;-0.60;99.90
16321;DHT22;8269;50.990;4.494;2023-02-28T05:52:15;-0.60;99.90
16321;DHT22;8269;50.990;4.494;2023-02-28T05:54:41;-0.50;99.90
16321;DHT22;8269;50.990;4.494;2023-02-28T05:57:07;-0.50;99.90
16321;DHT22;8269;50.990;4.494;2023-02-28T05:59:32;-0.50;99.90
16321;DHT22;8269;50.990;4.494;2023-02-28T06:01:58;-0.40;99.90
16321;DHT22;8269;50.990;4.494;2023-02-28T06:04:23;-0.40;99.90
16321;DHT22;8269;50.990;4.494;2023-02-28T06:06:50;-0.50;99.90
16321;DHT22;8269;50.990;4.494;2023-02-28T06:09:17;-0.30;99.90
16321;DHT22;8269;50.990;4.494;2023-02-28T06:11:43;-0.30;99.90
16321;DHT22;8269;50.990;4.494;2023-02-28T06:14:15;-0.40;99.90
16321;DHT22;8269;50.990;4.494;2023-02-28T06:16:42;-0.30;99.90
16321;DHT22;8269;50.990;4.494;2023-02-28T06:19:08;-0.30;99.90
16321;DHT22;8269;50.990;4.494;2023-02-28T06:21:34;-0.30;99.90
16321;DHT22;8269;50.990;4.494;2023-02-28T06:24:00;-0.30;99.90
16321;DHT22;8269;50.990;4.494;2023-02-28T06:26:26;-0.30;99.90
16321;DHT22;8269;50.990;4.494;2023-02-28T06:28:52;-0.30;99.90
16321;DHT22;8269;50.990;4.494;2023-02-28T06:31:19;-0.30;99.90
16321;DHT22;8269;50.990;4.494;2023-02-28T06:33:46;-0.30;99.90
16321;DHT22;8269;50.990;4.494;2023-02-28T06:36:13;-0.20;99.90
16321;DHT22;8269;50.990;4.494;2023-02-28T06:38:39;0.30;99.90
16321;DHT22;8269;50.990;4.494;2023-02-28T06:41:06;-0.10;99.90
16321;DHT22;8269;50.990;4.494;2023-02-28T06:43:35;0.00;99.90
16321;DHT22;8269;50.990;4.494;2023-02-28T06:48:28;-0.10;99.90
16321;DHT22;8269;50.990;4.494;2023-02-28T06:51:14;-0.10;99.90
16321;DHT22;8269;50.990;4.494;2023-02-28T06:53:41;0.00;99.90
16321;DHT22;8269;50.990;4.494;2023-02-28T06:56:10;0.10;99.90
16321;DHT22;8269;50.990;4.494;2023-02-28T07:01:03;0.30;99.90
16321;DHT22;8269;50.990;4.494;2023-02-28T07:03:29;0.40;99.90
16321;DHT22;8269;50.990;4.494;2023-02-28T07:05:56;0.50;99.90
16321;DHT22;8269;50.990;4.494;2023-02-28T07:08:23;0.50;99.90
16321;DHT22;8269;50.990;4.494;2023-02-28T07:10:52;0.60;99.90
16321;DHT22;8269;50.990;4.494;2023-02-28T07:13:19;0.70;99.90
16321;DHT22;8269;50.990;4.494;2023-02-28T07:15:56;0.70;99.90
16321;DHT22;8269;50.990;4.494;2023-02-28T07:18:22;0.70;99.90
16321;DHT22;8269;50.990;4.494;2023-02-28T07:20:49;0.70;99.90
16321;DHT22;8269;50.990;4.494;2023-02-28T07:23:15;0.80;99.90
16321;DHT22;8269;50.990;4.494;2023-02-28T07:25:40;0.90;99.90
16321;DHT22;8269;50.990;4.494;2023-02-28T07:28:06;0.90;99.90
16321;DHT22;8269;50.990;4.494;2023-02-28T07:30:32;1.00;99.90
16321;DHT22;8269;50.990;4.494;2023-02-28T07:32:57;0.80;99.90
16321;DHT22;8269;50.990;4.494;2023-02-28T07:35:23;0.70;99.90
16321;DHT22;8269;50.990;4.494;2023-02-28T07:37:49;1.20;99.90
16321;DHT22;8269;50.990;4.494;2023-02-28T07:40:15;1.10;99.90
16321;DHT22;8269;50.990;4.494;2023-02-28T07:42:43;1.30;99.90
16321;DHT22;8269;50.990;4.494;2023-02-28T07:45:11;1.40;99.90
16321;DHT22;8269;50.990;4.494;2023-02-28T07:47:38;1.70;99.90
16321;DHT22;8269;50.990;4.494;2023-02-28T07:50:05;1.80;99.90
16321;DHT22;8269;50.990;4.494;2023-02-28T07:54:57;2.10;99.90
16321;DHT22;8269;50.990;4.494;2023-02-28T07:57:23;2.40;99.90
16321;DHT22;8269;50.990;4.494;2023-02-28T07:59:49;2.60;99.90
16321;DHT22;8269;50.990;4.494;2023-02-28T08:02:16;3.00;99.90
16321;DHT22;8269;50.990;4.494;2023-02-28T08:04:41;3.00;99.90
16321;DHT22;8269;50.990;4.494;2023-02-28T08:07:07;3.00;99.90
16321;DHT22;8269;50.990;4.494;2023-02-28T08:12:00;3.20;99.90
16321;DHT22;8269;50.990;4.494;2023-02-28T08:14:25;3.50;99.90
16321;DHT22;8269;50.990;4.494;2023-02-28T08:19:17;3.60;99.90
16321;DHT22;8269;50.990;4.494;2023-02-28T08:21:43;4.00;99.90
16321;DHT22;8269;50.990;4.494;2023-02-28T08:24:08;3.70;99.90
16321;DHT22;8269;50.990;4.494;2023-02-28T08:26:34;3.50;99.90
16321;DHT22;8269;50.990;4.494;2023-02-28T08:28:59;4.20;99.90
16321;DHT22;8269;50.990;4.494;2023-02-28T08:33:53;4.10;95.90
16321;DHT22;8269;50.990;4.494;2023-02-28T08:36:21;4.10;96.50
16321;DHT22;8269;50.990;4.494;2023-02-28T08:38:46;4.00;95.80
16321;DHT22;8269;50.990;4.494;2023-02-28T08:41:12;4.10;90.70
16321;DHT22;8269;50.990;4.494;2023-02-28T08:43:39;4.10;91.00
16321;DHT22;8269;50.990;4.494;2023-02-28T08:46:06;4.20;90.10
16321;DHT22;8269;50.990;4.494;2023-02-28T08:51:01;4.20;99.90
16321;DHT22;8269;50.990;4.494;2023-02-28T08:56:05;4.20;99.90
16321;DHT22;8269;50.990;4.494;2023-02-28T09:00:58;4.20;93.80
16321;DHT22;8269;50.990;4.494;2023-02-28T09:03:24;4.00;77.40
16321;DHT22;8269;50.990;4.494;2023-02-28T09:08:20;3.70;99.90
16321;DHT22;8269;50.990;4.494;2023-02-28T09:10:46;3.70;93.70
16321;DHT22;8269;50.990;4.494;2023-02-28T09:13:12;3.50;75.80
16321;DHT22;8269;50.990;4.494;2023-02-28T09:15:38;3.30;80.00
16321;DHT22;8269;50.990;4.494;2023-02-28T09:18:04;3.40;79.20
16321;DHT22;8269;50.990;4.494;2023-02-28T09:20:30;3.70;93.60
16321;DHT22;8269;50.990;4.494;2023-02-28T09:22:56;3.70;78.30
16321;DHT22;8269;50.990;4.494;2023-02-28T09:25:22;3.70;70.00
16321;DHT22;8269;50.990;4.494;2023-02-28T09:27:48;3.60;70.30
16321;DHT22;8269;50.990;4.494;2023-02-28T09:30:14;3.50;74.10
16321;DHT22;8269;50.990;4.494;2023-02-28T09:32:39;3.30;68.60
16321;DHT22;8269;50.990;4.494;2023-02-28T09:35:05;3.30;69.60
16321;DHT22;8269;50.990;4.494;2023-02-28T09:39:58;3.30;99.90
16321;DHT22;8269;50.990;4.494;2023-02-28T09:42:31;3.30;70.30
16321;DHT22;8269;50.990;4.494;2023-02-28T09:45:01;3.30;68.10
16321;DHT22;8269;50.990;4.494;2023-02-28T09:52:48;3.20;69.40
16321;DHT22;8269;50.990;4.494;2023-02-28T09:55:32;3.40;70.20
16321;DHT22;8269;50.990;4.494;2023-02-28T09:58:00;3.40;68.30
16321;DHT22;8269;50.990;4.494;2023-02-28T10:00:35;3.40;67.00
16321;DHT22;8269;50.990;4.494;2023-02-28T10:06:17;3.40;68.00
16321;DHT22;8269;50.990;4.494;2023-02-28T10:09:12;3.40;66.90
16321;DHT22;8269;50.990;4.494;2023-02-28T10:11:43;3.50;67.50
16321;DHT22;8269;50.990;4.494;2023-02-28T10:14:18;3.40;63.40
16321;DHT22;8269;50.990;4.494;2023-02-28T10:16:50;3.50;73.20
16321;DHT22;8269;50.990;4.494;2023-02-28T10:22:03;3.50;84.50
16321;DHT22;8269;50.990;4.494;2023-02-28T10:24:37;3.50;59.10
16321;DHT22;8269;50.990;4.494;2023-02-28T10:27:25;3.40;66.40
16321;DHT22;8269;50.990;4.494;2023-02-28T10:29:56;3.40;59.50
16321;DHT22;8269;50.990;4.494;2023-02-28T10:32:33;3.50;60.60
16321;DHT22;8269;50.990;4.494;2023-02-28T10:37:26;3.60;91.00
16321;DHT22;8269;50.990;4.494;2023-02-28T10:39:52;3.40;70.70
16321;DHT22;8269;50.990;4.494;2023-02-28T10:42:22;3.80;58.60
16321;DHT22;8269;50.990;4.494;2023-02-28T10:47:30;3.80;57.10
16321;DHT22;8269;50.990;4.494;2023-02-28T10:49:56;3.70;57.60
16321;DHT22;8269;50.990;4.494;2023-02-28T10:52:48;3.60;57.90
16321;DHT22;8269;50.990;4.494;2023-02-28T10:55:21;3.70;58.60
16321;DHT22;8269;50.990;4.494;2023-02-28T10:57:48;3.80;58.30
16321;DHT22;8269;50.990;4.494;2023-02-28T11:00:15;3.80;58.40
16321;DHT22;8269;50.990;4.494;2023-02-28T11:02:41;3.70;57.70
16321;DHT22;8269;50.990;4.494;2023-02-28T11:08:01;3.70;58.00
16321;DHT22;8269;50.990;4.494;2023-02-28T11:10:31;3.80;58.60
16321;DHT22;8269;50.990;4.494;2023-02-28T11:13:00;3.90;57.10
16321;DHT22;8269;50.990;4.494;2023-02-28T11:15:29;3.60;57.30
16321;DHT22;8269;50.990;4.494;2023-02-28T11:20:25;3.90;56.60
16321;DHT22;8269;50.990;4.494;2023-02-28T11:22:52;4.00;55.70
16321;DHT22;8269;50.990;4.494;2023-02-28T11:25:24;4.00;56.30
16321;DHT22;8269;50.990;4.494;2023-02-28T11:27:56;4.00;56.30
16321;DHT22;8269;50.990;4.494;2023-02-28T11:30:31;4.00;56.20
16321;DHT22;8269;50.990;4.494;2023-02-28T11:32:56;4.10;56.40
16321;DHT22;8269;50.990;4.494;2023-02-28T11:35:26;4.10;55.80
16321;DHT22;8269;50.990;4.494;2023-02-28T11:38:00;4.10;55.40
16321;DHT22;8269;50.990;4.494;2023-02-28T11:57:55;4.30;53.60
16321;DHT22;8269;50.990;4.494;2023-02-28T12:03:27;4.20;54.20
16321;DHT22;8269;50.990;4.494;2023-02-28T12:09:00;4.30;53.30
16321;DHT22;8269;50.990;4.494;2023-02-28T12:11:54;4.40;53.70
16321;DHT22;8269;50.990;4.494;2023-02-28T12:22:30;4.50;52.80
16321;DHT22;8269;50.990;4.494;2023-02-28T12:25:20;4.30;61.40
16321;DHT22;8269;50.990;4.494;2023-02-28T12:27:48;4.40;62.70
16321;DHT22;8269;50.990;4.494;2023-02-28T12:31:05;4.60;90.00
16321;DHT22;8269;50.990;4.494;2023-02-28T12:33:14;4.20;84.90
16321;DHT22;8269;50.990;4.494;2023-02-28T12:35:48;4.50;52.20
16321;DHT22;8269;50.990;4.494;2023-02-28T12:38:37;4.60;51.70
16321;DHT22;8269;50.990;4.494;2023-02-28T12:41:16;4.60;50.80
16321;DHT22;8269;50.990;4.494;2023-02-28T12:43:53;4.60;51.30
16321;DHT22;8269;50.990;4.494;2023-02-28T12:49:00;4.60;50.30
16321;DHT22;8269;50.990;4.494;2023-02-28T12:51:28;4.60;50.60
16321;DHT22;8269;50.990;4.494;2023-02-28T13:02:11;4.60;49.90
16321;DHT22;8269;50.990;4.494;2023-02-28T13:08:07;4.70;50.60
16321;DHT22;8269;50.990;4.494;2023-02-28T13:10:50;4.80;50.00
16321;DHT22;8269;50.990;4.494;2023-02-28T13:13:29;4.70;49.80
16321;DHT22;8269;50.990;4.494;2023-02-28T13:16:09;4.70;48.90
16321;DHT22;8269;50.990;4.494;2023-02-28T13:21:07;4.60;49.50
16321;DHT22;8269;50.990;4.494;2023-02-28T13:26:12;4.70;50.80
16321;DHT22;8269;50.990;4.494;2023-02-28T13:28:59;4.90;50.80
16321;DHT22;8269;50.990;4.494;2023-02-28T13:31:26;4.80;49.40
16321;DHT22;8269;50.990;4.494;2023-02-28T13:36:28;4.70;49.90
